Check out our new BloomSky Weather System.

Active alerts


No alerts


Thunder radar  blitzortung!


Rain radar more information rain snow radar


Visit our other weather sites:

Template documentation
and downloads

And another site



Weather Underground History page Text

Daily Summary for April 22, 2017 Units:  English    Metric   Both
« Previous Day
Next Day »
Daily Weekly Monthly Yearly Custom
  High: Low: Average:
Temperature: 81.9 °F 60.4 °F 70 °F
Dew Point: 74.1 °F 50.5 °F 64.5 °F
Humidity: 97 % 70 % 83 %
Wind Speed: 13.0 mph 0.0 mph 4.2 mph
Wind Gust: 22.0 mph - -
Wind:- - West
Pressure: 30.07 in 29.80 in -
Precipitation: 0.00 in    
Historical Graphs
 
 
Tabular Data for April 22, 2017
Time Temperature Dew Point Pressure Wind Wind Speed Wind Gust Humidity Rainfall Rate (Hourly)
00:02 73.9 °F 70.9 °F 29.82 in SSE 2.0 mph 9.0 mph 90 % 0.00 in
00:07 73.9 °F 70.9 °F 29.82 in SSE 6.0 mph 9.0 mph 90 % 0.00 in
00:12 73.9 °F 71.1 °F 29.82 in East 5.0 mph 9.0 mph 91 % 0.00 in
00:18 73.8 °F 70.9 °F 29.81 in SSE 6.0 mph 8.0 mph 91 % 0.00 in
00:23 73.8 °F 70.9 °F 29.81 in SSE 6.0 mph 8.0 mph 91 % 0.00 in
00:27 73.8 °F 70.9 °F 29.81 in SSE 3.0 mph 8.0 mph 91 % 0.00 in
00:32 73.6 °F 70.7 °F 29.81 in SSE 2.0 mph 8.0 mph 91 % 0.00 in
00:38 73.6 °F 70.7 °F 29.81 in SE 4.0 mph 8.0 mph 91 % 0.00 in
00:43 73.4 °F 70.5 °F 29.81 in SSE 3.0 mph 9.0 mph 91 % 0.00 in
00:48 73.4 °F 70.5 °F 29.81 in SSE 5.0 mph 9.0 mph 91 % 0.00 in
00:52 73.2 °F 70.5 °F 29.81 in South 5.0 mph 9.0 mph 91 % 0.00 in
00:58 73.2 °F 70.7 °F 29.81 in South 6.0 mph 7.0 mph 92 % 0.00 in
01:02 73.2 °F 70.7 °F 29.81 in SSE 2.0 mph 7.0 mph 92 % 0.00 in
01:07 73.2 °F 70.7 °F 29.81 in SSE 4.0 mph 9.0 mph 92 % 0.00 in
01:12 73.2 °F 70.7 °F 29.81 in SE 4.0 mph 10.0 mph 92 % 0.00 in
01:18 73.0 °F 70.5 °F 29.81 in SE 2.0 mph 10.0 mph 92 % 0.00 in
01:23 73.0 °F 70.5 °F 29.81 in SSE 5.0 mph 10.0 mph 92 % 0.00 in
01:28 73.0 °F 70.5 °F 29.80 in SE 6.0 mph 9.0 mph 92 % 0.00 in
01:33 73.0 °F 70.5 °F 29.81 in ESE 4.0 mph 9.0 mph 92 % 0.00 in
01:38 73.0 °F 70.5 °F 29.81 in South 4.0 mph 9.0 mph 92 % 0.00 in
01:43 73.0 °F 70.5 °F 29.81 in South 2.0 mph 8.0 mph 92 % 0.00 in
01:48 73.0 °F 70.5 °F 29.81 in SSE 5.0 mph 8.0 mph 92 % 0.00 in
01:53 73.0 °F 70.9 °F 29.81 in SSE 2.0 mph 8.0 mph 93 % 0.00 in
01:58 72.9 °F 70.7 °F 29.81 in South 2.0 mph 7.0 mph 93 % 0.00 in
02:03 72.9 °F 70.7 °F 29.81 in SSW 2.0 mph 7.0 mph 93 % 0.00 in
02:08 72.9 °F 70.7 °F 29.81 in South 2.0 mph 7.0 mph 93 % 0.00 in
02:13 72.7 °F 70.5 °F 29.81 in SSW 3.0 mph 6.0 mph 93 % 0.00 in
02:18 72.7 °F 70.5 °F 29.81 in SSE 2.0 mph 6.0 mph 93 % 0.00 in
02:22 72.7 °F 70.5 °F 29.81 in SSW 2.0 mph 5.0 mph 93 % 0.00 in
02:27 72.7 °F 70.5 °F 29.81 in SSE 2.0 mph 5.0 mph 93 % 0.00 in
02:32 72.7 °F 70.5 °F 29.81 in ESE 3.0 mph 4.0 mph 93 % 0.00 in
02:37 72.5 °F 70.3 °F 29.81 in SE 1.0 mph 6.0 mph 93 % 0.00 in
02:42 72.3 °F 70.2 °F 29.81 in Calm   6.0 mph 93 % 0.00 in
02:47 72.3 °F 70.5 °F 29.81 in Calm   6.0 mph 94 % 0.00 in
02:52 72.1 °F 70.3 °F 29.81 in South 2.0 mph 4.0 mph 94 % 0.00 in
02:57 72.1 °F 70.3 °F 29.81 in Calm   4.0 mph 94 % 0.00 in
03:02 72.0 °F 70.2 °F 29.82 in Calm   2.0 mph 94 % 0.00 in
03:07 71.6 °F 69.8 °F 29.82 in Calm   2.0 mph 94 % 0.00 in
03:12 71.4 °F 69.6 °F 29.82 in Calm   1.0 mph 94 % 0.00 in
03:17 71.2 °F 69.4 °F 29.82 in Calm     94 % 0.00 in
03:23 70.9 °F 69.1 °F 29.82 in Calm     94 % 0.00 in
03:27 70.5 °F 68.7 °F 29.82 in Calm     94 % 0.00 in
03:32 70.7 °F 69.3 °F 29.82 in Calm     95 % 0.00 in
03:37 70.7 °F 69.3 °F 29.81 in Calm     95 % 0.00 in
03:42 70.5 °F 69.1 °F 29.81 in Calm     95 % 0.00 in
03:47 70.3 °F 68.9 °F 29.81 in Calm     95 % 0.00 in
03:53 70.3 °F 68.9 °F 29.81 in Calm   1.0 mph 95 % 0.00 in
03:58 70.3 °F 68.9 °F 29.81 in Calm   1.0 mph 95 % 0.00 in
04:03 70.2 °F 68.7 °F 29.81 in South 1.0 mph 1.0 mph 95 % 0.00 in
04:08 70.2 °F 68.9 °F 29.81 in SSE 2.0 mph 2.0 mph 96 % 0.00 in
04:13 70.3 °F 69.1 °F 29.81 in Calm   2.0 mph 96 % 0.00 in
04:18 70.5 °F 69.3 °F 29.81 in South 2.0 mph 2.0 mph 96 % 0.00 in
04:23 70.5 °F 69.3 °F 29.81 in SSE 2.0 mph 3.0 mph 96 % 0.00 in
04:27 70.5 °F 69.3 °F 29.81 in Calm   3.0 mph 96 % 0.00 in
04:32 70.3 °F 69.1 °F 29.82 in Calm   3.0 mph 96 % 0.00 in
04:37 70.3 °F 69.4 °F 29.82 in Calm   2.0 mph 97 % 0.00 in
04:42 70.5 °F 69.6 °F 29.83 in WNW 1.0 mph 1.0 mph 97 % 0.00 in
04:47 70.5 °F 69.6 °F 29.83 in Calm   2.0 mph 97 % 0.00 in
04:52 70.5 °F 69.3 °F 29.83 in Calm   2.0 mph 96 % 0.00 in
04:57 70.5 °F 69.6 °F 29.84 in Calm   2.0 mph 97 % 0.00 in
04:59 70.5 °F 69.6 °F 29.84 in Calm   2.0 mph 97 % 0.00 in
05:04 70.5 °F 69.3 °F 29.84 in Calm   1.0 mph 96 % 0.00 in
05:09 70.3 °F 69.1 °F 29.84 in Calm   1.0 mph 96 % 0.00 in
05:14 70.3 °F 69.4 °F 29.84 in Calm   1.0 mph 97 % 0.00 in
05:19 70.3 °F 69.4 °F 29.84 in Calm     97 % 0.00 in
05:24 70.2 °F 68.9 °F 29.85 in Calm     96 % 0.00 in
05:29 70.2 °F 69.3 °F 29.85 in Calm     97 % 0.00 in
05:34 70.2 °F 69.3 °F 29.85 in Calm   1.0 mph 97 % 0.00 in
05:40 70.2 °F 69.3 °F 29.85 in Calm   1.0 mph 97 % 0.00 in
05:41 70.2 °F 69.3 °F 29.85 in Calm   1.0 mph 97 % 0.00 in
05:45 70.0 °F 69.1 °F 29.85 in Calm     97 % 0.00 in
05:50 70.2 °F 69.3 °F 29.85 in Calm     97 % 0.00 in
05:55 70.3 °F 69.4 °F 29.85 in Calm   2.0 mph 97 % 0.00 in
06:00 70.3 °F 69.4 °F 29.85 in SSW 1.0 mph 2.0 mph 97 % 0.00 in
06:05 70.7 °F 69.8 °F 29.85 in SSE 1.0 mph 2.0 mph 97 % 0.00 in
06:06 70.7 °F 69.8 °F 29.85 in SSE 1.0 mph 2.0 mph 97 % 0.00 in
06:11 70.9 °F 70.0 °F 29.85 in South 2.0 mph 3.0 mph 97 % 0.00 in
06:16 70.9 °F 70.0 °F 29.85 in Calm   3.0 mph 97 % 0.00 in
06:21 70.9 °F 70.0 °F 29.85 in SSE 1.0 mph 3.0 mph 97 % 0.00 in
06:26 71.1 °F 70.2 °F 29.85 in Calm   3.0 mph 97 % 0.00 in
06:31 70.9 °F 70.0 °F 29.85 in Calm   2.0 mph 97 % 0.00 in
06:32 70.9 °F 70.0 °F 29.85 in SSE 1.0 mph 2.0 mph 97 % 0.00 in
06:37 70.9 °F 70.0 °F 29.86 in Calm   2.0 mph 97 % 0.00 in
06:42 70.7 °F 69.8 °F 29.86 in Calm   1.0 mph 97 % 0.00 in
06:47 70.7 °F 69.8 °F 29.86 in South 2.0 mph 2.0 mph 97 % 0.00 in
06:52 70.7 °F 69.8 °F 29.86 in SSW 1.0 mph 2.0 mph 97 % 0.00 in
06:57 70.7 °F 69.8 °F 29.86 in South 2.0 mph 4.0 mph 97 % 0.00 in
07:02 70.9 °F 70.0 °F 29.86 in SSW 1.0 mph 4.0 mph 97 % 0.00 in
07:07 70.9 °F 70.0 °F 29.86 in South 3.0 mph 4.0 mph 97 % 0.00 in
07:12 71.1 °F 70.2 °F 29.86 in SSW 3.0 mph 5.0 mph 97 % 0.00 in
07:17 71.1 °F 70.2 °F 29.86 in South 3.0 mph 6.0 mph 97 % 0.00 in
07:22 71.2 °F 70.3 °F 29.86 in SSW 3.0 mph 6.0 mph 97 % 0.00 in
07:27 71.2 °F 70.3 °F 29.86 in South 1.0 mph 6.0 mph 97 % 0.00 in
07:32 71.4 °F 70.5 °F 29.86 in SE 1.0 mph 5.0 mph 97 % 0.00 in
07:37 71.4 °F 70.5 °F 29.86 in South 3.0 mph 5.0 mph 97 % 0.00 in
07:42 71.8 °F 70.9 °F 29.86 in SSE 3.0 mph 5.0 mph 97 % 0.00 in
07:47 72.1 °F 71.2 °F 29.87 in Calm   5.0 mph 97 % 0.00 in
07:52 72.3 °F 71.4 °F 29.87 in Calm   7.0 mph 97 % 0.00 in
07:57 72.9 °F 72.0 °F 29.88 in Calm   7.0 mph 97 % 0.00 in
08:02 73.2 °F 72.0 °F 29.88 in Calm   7.0 mph 96 % 0.00 in
08:07 73.8 °F 72.5 °F 29.88 in Calm   5.0 mph 96 % 0.00 in
08:12 73.9 °F 72.5 °F 29.88 in Calm   4.0 mph 95 % 0.00 in
08:17 74.5 °F 73.0 °F 29.88 in Calm   4.0 mph 95 % 0.00 in
08:22 74.8 °F 73.0 °F 29.88 in SW 1.0 mph 4.0 mph 94 % 0.00 in
08:27 75.0 °F 72.9 °F 29.89 in SW 2.0 mph 5.0 mph 93 % 0.00 in
08:32 75.6 °F 73.0 °F 29.89 in SSW 2.0 mph 6.0 mph 92 % 0.00 in
08:37 76.3 °F 74.1 °F 29.89 in SW 2.0 mph 7.0 mph 93 % 0.00 in
08:42 76.5 °F 73.2 °F 29.89 in SW 2.0 mph 7.0 mph 90 % 0.00 in
08:47 75.9 °F 72.5 °F 29.90 in SW 2.0 mph 7.0 mph 89 % 0.00 in
08:52 75.6 °F 72.1 °F 29.90 in South 2.0 mph 7.0 mph 89 % 0.00 in
08:57 75.4 °F 72.3 °F 29.90 in Calm   7.0 mph 90 % 0.00 in
09:02 75.7 °F 72.7 °F 29.90 in Calm   7.0 mph 90 % 0.00 in
09:07 75.9 °F 72.9 °F 29.90 in WSW 3.0 mph 3.0 mph 90 % 0.00 in
09:12 76.3 °F 72.9 °F 29.90 in WSW 1.0 mph 3.0 mph 89 % 0.00 in
09:17 76.1 °F 72.7 °F 29.90 in WNW 2.0 mph 3.0 mph 89 % 0.00 in
09:22 76.5 °F 73.0 °F 29.90 in SSE 1.0 mph 3.0 mph 89 % 0.00 in
09:27 76.8 °F 73.0 °F 29.90 in WNW 2.0 mph 3.0 mph 88 % 0.00 in
09:32 77.5 °F 73.4 °F 29.90 in SSW 3.0 mph 4.0 mph 87 % 0.00 in
09:37 78.1 °F 73.6 °F 29.90 in SSE 3.0 mph 6.0 mph 86 % 0.00 in
09:42 78.6 °F 73.8 °F 29.90 in NNW 4.0 mph 6.0 mph 85 % 0.00 in
09:47 78.6 °F 72.7 °F 29.90 in SW 1.0 mph 6.0 mph 82 % 0.00 in
09:52 78.6 °F 72.7 °F 29.90 in Calm   6.0 mph 82 % 0.00 in
09:57 79.0 °F 72.7 °F 29.90 in ENE 3.0 mph 7.0 mph 81 % 0.00 in
10:02 79.3 °F 72.7 °F 29.90 in Calm   7.0 mph 80 % 0.00 in
10:07 79.3 °F 72.7 °F 29.90 in Calm   7.0 mph 80 % 0.00 in
10:12 79.0 °F 72.3 °F 29.90 in South 1.0 mph 7.0 mph 80 % 0.00 in
10:17 79.3 °F 72.3 °F 29.90 in WNW 4.0 mph 7.0 mph 79 % 0.00 in
10:22 79.3 °F 72.3 °F 29.90 in NE 2.0 mph 7.0 mph 79 % 0.00 in
10:27 79.3 °F 72.3 °F 29.91 in ENE 2.0 mph 5.0 mph 79 % 0.00 in
10:32 79.3 °F 72.0 °F 29.91 in West 2.0 mph 5.0 mph 78 % 0.00 in
10:38 79.3 °F 72.3 °F 29.91 in Calm   6.0 mph 79 % 0.00 in
10:43 80.2 °F 73.9 °F 29.91 in Calm   6.0 mph 81 % 0.00 in
10:48 80.8 °F 72.5 °F 29.91 in SW 1.0 mph 7.0 mph 76 % 0.00 in
10:53 80.4 °F 72.1 °F 29.91 in WSW 4.0 mph 7.0 mph 76 % 0.00 in
10:58 80.2 °F 72.3 °F 29.91 in SW 2.0 mph 7.0 mph 77 % 0.00 in
11:02 80.4 °F 72.1 °F 29.91 in SW 2.0 mph 5.0 mph 76 % 0.00 in
11:07 80.8 °F 72.5 °F 29.91 in Calm   5.0 mph 76 % 0.00 in
11:12 81.9 °F 72.7 °F 29.91 in NW 7.0 mph 7.0 mph 74 % 0.00 in
11:18 78.6 °F 68.9 °F 29.92 in North 12.0 mph 12.0 mph 72 % 0.00 in
11:23 75.7 °F 68.4 °F 29.93 in NNW 7.0 mph 15.0 mph 78 % 0.00 in
11:28 74.8 °F 68.2 °F 29.93 in NW 9.0 mph 15.0 mph 80 % 0.00 in
11:33 73.2 °F 67.5 °F 29.93 in NW 7.0 mph 15.0 mph 82 % 0.00 in
11:38 71.8 °F 66.7 °F 29.93 in NW 7.0 mph 14.0 mph 84 % 0.00 in
11:43 70.5 °F 65.8 °F 29.93 in NW 9.0 mph 14.0 mph 85 % 0.00 in
11:48 69.4 °F 65.1 °F 29.94 in WNW 11.0 mph 14.0 mph 86 % 0.00 in
11:53 69.1 °F 65.1 °F 29.94 in WNW 7.0 mph 14.0 mph 87 % 0.00 in
11:58 69.1 °F 65.1 °F 29.94 in WNW 7.0 mph 15.0 mph 87 % 0.00 in
12:03 69.1 °F 65.1 °F 29.94 in NNW 6.0 mph 15.0 mph 87 % 0.00 in
12:08 69.4 °F 65.1 °F 29.94 in WNW 11.0 mph 15.0 mph 86 % 0.00 in
12:13 69.8 °F 65.5 °F 29.94 in WNW 8.0 mph 15.0 mph 86 % 0.00 in
12:18 70.9 °F 66.2 °F 29.94 in WNW 4.0 mph 15.0 mph 85 % 0.00 in
12:20 71.2 °F 66.2 °F 29.94 in NW 7.0 mph 15.0 mph 84 % 0.00 in
12:25 70.9 °F 65.8 °F 29.95 in NNW 6.0 mph 15.0 mph 84 % 0.00 in
12:30 71.1 °F 66.0 °F 29.95 in NW 5.0 mph 12.0 mph 84 % 0.00 in
12:35 71.1 °F 65.7 °F 29.95 in WNW 6.0 mph 12.0 mph 83 % 0.00 in
12:41 72.0 °F 65.8 °F 29.94 in North 5.0 mph 12.0 mph 81 % 0.00 in
12:46 71.4 °F 65.3 °F 29.94 in NW 6.0 mph 12.0 mph 81 % 0.00 in
12:51 70.9 °F 65.1 °F 29.95 in NW 6.0 mph 11.0 mph 82 % 0.00 in
12:56 70.7 °F 64.9 °F 29.94 in NNW 3.0 mph 12.0 mph 82 % 0.00 in
13:01 71.2 °F 65.1 °F 29.94 in WNW 7.0 mph 12.0 mph 81 % 0.00 in
13:06 72.0 °F 65.5 °F 29.94 in North 4.0 mph 13.0 mph 80 % 0.00 in
13:11 72.1 °F 65.7 °F 29.94 in West 8.0 mph 13.0 mph 80 % 0.00 in
13:16 72.3 °F 65.1 °F 29.94 in WNW 6.0 mph 13.0 mph 78 % 0.00 in
13:21 72.3 °F 65.5 °F 29.94 in West 2.0 mph 14.0 mph 79 % 0.00 in
13:26 72.7 °F 65.1 °F 29.94 in NNW 4.0 mph 14.0 mph 77 % 0.00 in
13:31 72.3 °F 64.8 °F 29.94 in NW 6.0 mph 14.0 mph 77 % 0.00 in
13:36 72.3 °F 65.1 °F 29.94 in NW 5.0 mph 15.0 mph 78 % 0.00 in
13:41 72.3 °F 64.8 °F 29.94 in NNW 8.0 mph 15.0 mph 77 % 0.00 in
13:46 71.6 °F 64.0 °F 29.94 in NNW 5.0 mph 15.0 mph 77 % 0.00 in
13:51 71.4 °F 64.2 °F 29.94 in NNW 6.0 mph 12.0 mph 78 % 0.00 in
13:56 71.6 °F 64.8 °F 29.94 in NNW 10.0 mph 12.0 mph 79 % 0.00 in
14:01 71.2 °F 64.0 °F 29.94 in NNW 10.0 mph 14.0 mph 78 % 0.00 in
14:06 71.2 °F 64.4 °F 29.94 in NW 6.0 mph 14.0 mph 79 % 0.00 in
14:11 71.1 °F 64.2 °F 29.94 in NNW 7.0 mph 14.0 mph 79 % 0.00 in
14:16 71.4 °F 64.2 °F 29.94 in WNW 3.0 mph 12.0 mph 78 % 0.00 in
14:21 71.4 °F 63.9 °F 29.94 in North 8.0 mph 13.0 mph 77 % 0.00 in
14:26 71.1 °F 63.9 °F 29.94 in WNW 8.0 mph 13.0 mph 78 % 0.00 in
14:31 70.7 °F 63.1 °F 29.94 in WSW 5.0 mph 14.0 mph 77 % 0.00 in
14:36 71.1 °F 63.9 °F 29.94 in NNW 6.0 mph 14.0 mph 78 % 0.00 in
14:41 71.4 °F 64.2 °F 29.94 in NNW 9.0 mph 14.0 mph 78 % 0.00 in
14:47 71.4 °F 63.5 °F 29.94 in West 5.0 mph 14.0 mph 76 % 0.00 in
14:52 70.9 °F 63.3 °F 29.94 in NNW 9.0 mph 14.0 mph 77 % 0.00 in
14:57 70.9 °F 63.0 °F 29.94 in NW 7.0 mph 14.0 mph 76 % 0.00 in
15:02 71.1 °F 63.9 °F 29.94 in NNE 10.0 mph 15.0 mph 78 % 0.00 in
15:07 72.0 °F 64.0 °F 29.94 in WNW 4.0 mph 15.0 mph 76 % 0.00 in
15:12 71.8 °F 63.5 °F 29.94 in North 1.0 mph 15.0 mph 75 % 0.00 in
15:17 72.0 °F 63.1 °F 29.94 in West 4.0 mph 13.0 mph 74 % 0.00 in
15:22 71.2 °F 62.6 °F 29.94 in NNW 10.0 mph 13.0 mph 74 % 0.00 in
15:27 71.2 °F 62.6 °F 29.94 in NNW 6.0 mph 12.0 mph 74 % 0.00 in
15:32 71.4 °F 62.8 °F 29.94 in NW 6.0 mph 13.0 mph 74 % 0.00 in
15:37 71.1 °F 62.8 °F 29.94 in NNW 3.0 mph 13.0 mph 75 % 0.00 in
15:42 70.7 °F 62.1 °F 29.94 in WNW 8.0 mph 14.0 mph 74 % 0.00 in
15:47 70.5 °F 62.2 °F 29.94 in NNW 10.0 mph 14.0 mph 75 % 0.00 in
15:52 70.2 °F 61.9 °F 29.94 in West 5.0 mph 14.0 mph 75 % 0.00 in
15:57 70.2 °F 61.9 °F 29.94 in NNW 7.0 mph 14.0 mph 75 % 0.00 in
16:02 70.2 °F 61.9 °F 29.94 in NNW 10.0 mph 14.0 mph 75 % 0.00 in
16:07 70.3 °F 61.7 °F 29.94 in NW 9.0 mph 14.0 mph 74 % 0.00 in
16:12 70.2 °F 61.5 °F 29.94 in NW 5.0 mph 15.0 mph 74 % 0.00 in
16:17 70.0 °F 61.7 °F 29.94 in NNW 4.0 mph 15.0 mph 75 % 0.00 in
16:22 69.4 °F 61.2 °F 29.94 in North 12.0 mph 15.0 mph 75 % 0.00 in
16:27 69.3 °F 61.0 °F 29.94 in NNE 5.0 mph 15.0 mph 75 % 0.00 in
16:32 68.7 °F 60.4 °F 29.94 in NNW 6.0 mph 15.0 mph 75 % 0.00 in
16:37 68.9 °F 60.6 °F 29.94 in North 8.0 mph 15.0 mph 75 % 0.00 in
16:42 68.9 °F 60.3 °F 29.94 in North 9.0 mph 15.0 mph 74 % 0.00 in
16:47 68.2 °F 59.9 °F 29.94 in NNW 10.0 mph 17.0 mph 75 % 0.00 in
16:52 67.8 °F 59.9 °F 29.94 in NW 5.0 mph 17.0 mph 76 % 0.00 in
16:57 68.0 °F 59.7 °F 29.94 in NNW 7.0 mph 17.0 mph 75 % 0.00 in
17:02 68.4 °F 60.1 °F 29.94 in NW 8.0 mph 15.0 mph 75 % 0.00 in
17:07 68.4 °F 59.4 °F 29.94 in NNW 5.0 mph 16.0 mph 73 % 0.00 in
17:12 68.2 °F 59.9 °F 29.94 in NW 10.0 mph 16.0 mph 75 % 0.00 in
17:17 67.6 °F 59.4 °F 29.95 in NNW 6.0 mph 16.0 mph 75 % 0.00 in
17:22 67.5 °F 58.8 °F 29.95 in NW 7.0 mph 16.0 mph 74 % 0.00 in
17:27 67.5 °F 59.2 °F 29.95 in NNW 13.0 mph 16.0 mph 75 % 0.00 in
17:32 67.3 °F 58.6 °F 29.95 in North 8.0 mph 15.0 mph 74 % 0.00 in
17:37 67.1 °F 58.8 °F 29.95 in SW 6.0 mph 15.0 mph 75 % 0.00 in
17:42 67.3 °F 58.3 °F 29.96 in NW 10.0 mph 15.0 mph 73 % 0.00 in
17:47 66.7 °F 58.1 °F 29.96 in WNW 4.0 mph 15.0 mph 74 % 0.00 in
17:52 66.6 °F 58.1 °F 29.96 in NNW 12.0 mph 15.0 mph 74 % 0.00 in
17:57 66.7 °F 58.1 °F 29.95 in NNW 8.0 mph 15.0 mph 74 % 0.00 in
18:02 67.3 °F 58.3 °F 29.96 in NW 7.0 mph 15.0 mph 73 % 0.00 in
18:07 67.1 °F 58.1 °F 29.96 in NNW 7.0 mph 14.0 mph 73 % 0.00 in
18:12 67.5 °F 58.8 °F 29.95 in SSW 3.0 mph 13.0 mph 74 % 0.00 in
18:17 67.3 °F 57.9 °F 29.95 in WNW 7.0 mph 12.0 mph 72 % 0.00 in
18:22 66.7 °F 57.4 °F 29.96 in NW 5.0 mph 16.0 mph 72 % 0.00 in
18:27 66.7 °F 57.4 °F 29.96 in NNW 4.0 mph 16.0 mph 72 % 0.00 in
18:32 66.7 °F 57.4 °F 29.95 in NW 9.0 mph 16.0 mph 72 % 0.00 in
18:37 66.7 °F 57.4 °F 29.96 in NNE 11.0 mph 15.0 mph 72 % 0.00 in
18:42 66.7 °F 57.4 °F 29.96 in NNW 7.0 mph 15.0 mph 72 % 0.00 in
18:47 66.7 °F 57.0 °F 29.96 in North 12.0 mph 14.0 mph 71 % 0.00 in
18:52 66.6 °F 57.2 °F 29.96 in NW 6.0 mph 17.0 mph 72 % 0.00 in
18:57 66.6 °F 56.8 °F 29.96 in NW 10.0 mph 17.0 mph 71 % 0.00 in
19:02 66.6 °F 56.5 °F 29.97 in NW 4.0 mph 17.0 mph 70 % 0.00 in
19:07 66.4 °F 56.7 °F 29.97 in NNW 10.0 mph 16.0 mph 71 % 0.00 in
19:12 66.2 °F 56.5 °F 29.98 in NW 3.0 mph 16.0 mph 71 % 0.00 in
19:17 66.2 °F 56.8 °F 29.98 in NW 9.0 mph 15.0 mph 72 % 0.00 in
19:22 66.0 °F 56.7 °F 29.98 in WNW 3.0 mph 15.0 mph 72 % 0.00 in
19:27 65.8 °F 56.5 °F 29.98 in NW 3.0 mph 11.0 mph 72 % 0.00 in
19:32 65.8 °F 56.5 °F 29.98 in WSW 1.0 mph 11.0 mph 72 % 0.00 in
19:37 65.5 °F 55.8 °F 29.98 in NW 4.0 mph 11.0 mph 71 % 0.00 in
19:42 65.3 °F 55.6 °F 29.98 in NW 7.0 mph 14.0 mph 71 % 0.00 in
19:47 65.1 °F 55.9 °F 29.98 in NNW 3.0 mph 14.0 mph 72 % 0.00 in
19:52 64.9 °F 55.8 °F 29.98 in NW 4.0 mph 14.0 mph 72 % 0.00 in
19:57 64.8 °F 55.6 °F 29.98 in WNW 5.0 mph 13.0 mph 72 % 0.00 in
20:02 64.2 °F 54.7 °F 29.99 in NW 6.0 mph 14.0 mph 71 % 0.00 in
20:07 63.9 °F 54.7 °F 29.99 in West 6.0 mph 15.0 mph 72 % 0.00 in
20:12 63.5 °F 54.7 °F 29.99 in South 6.0 mph 16.0 mph 73 % 0.00 in
20:17 63.3 °F 54.5 °F 29.99 in NNW 4.0 mph 16.0 mph 73 % 0.00 in
20:22 63.1 °F 54.0 °F 30.00 in NNW 13.0 mph 16.0 mph 72 % 0.00 in
20:27 63.0 °F 54.1 °F 30.00 in NW 7.0 mph 16.0 mph 73 % 0.00 in
20:32 62.8 °F 54.0 °F 30.01 in NW 5.0 mph 16.0 mph 73 % 0.00 in
20:37 62.6 °F 53.8 °F 30.01 in NNW 5.0 mph 16.0 mph 73 % 0.00 in
20:42 62.4 °F 54.0 °F 30.01 in WNW 7.0 mph 13.0 mph 74 % 0.00 in
20:47 62.4 °F 54.0 °F 30.01 in NW 5.0 mph 12.0 mph 74 % 0.00 in
20:52 62.2 °F 53.8 °F 30.01 in NNW 6.0 mph 12.0 mph 74 % 0.00 in
20:57 62.2 °F 53.8 °F 30.02 in NNW 7.0 mph 12.0 mph 74 % 0.00 in
21:02 62.1 °F 53.6 °F 30.02 in NW 3.0 mph 13.0 mph 74 % 0.00 in
21:07 62.1 °F 53.6 °F 30.02 in West 6.0 mph 13.0 mph 74 % 0.00 in
21:12 61.9 °F 53.4 °F 30.02 in NNW 6.0 mph 13.0 mph 74 % 0.00 in
21:17 61.7 °F 53.2 °F 30.03 in NNW 7.0 mph 11.0 mph 74 % 0.00 in
21:22 61.5 °F 53.6 °F 30.03 in WNW 5.0 mph 12.0 mph 75 % 0.00 in
21:27 61.5 °F 52.7 °F 30.03 in NW 10.0 mph 12.0 mph 73 % 0.00 in
21:32 61.3 °F 52.2 °F 30.04 in WNW 4.0 mph 15.0 mph 72 % 0.00 in
21:37 61.3 °F 51.8 °F 30.04 in NW 7.0 mph 15.0 mph 71 % 0.00 in
21:42 61.2 °F 51.6 °F 30.04 in NW 2.0 mph 18.0 mph 71 % 0.00 in
21:47 61.2 °F 51.6 °F 30.05 in NW 5.0 mph 18.0 mph 71 % 0.00 in
21:52 61.2 °F 51.6 °F 30.04 in WNW 2.0 mph 18.0 mph 71 % 0.00 in
21:57 61.0 °F 51.4 °F 30.05 in WNW 10.0 mph 13.0 mph 71 % 0.00 in
22:01 61.0 °F 51.4 °F 30.05 in North 1.0 mph 13.0 mph 71 % 0.00 in
22:06 61.0 °F 51.4 °F 30.05 in NW 2.0 mph 13.0 mph 71 % 0.00 in
22:11 60.8 °F 51.8 °F 30.05 in NNW 3.0 mph 13.0 mph 72 % 0.00 in
22:16 60.8 °F 51.8 °F 30.06 in NW 6.0 mph 13.0 mph 72 % 0.00 in
22:21 60.6 °F 51.1 °F 30.06 in NW 11.0 mph 16.0 mph 71 % 0.00 in
22:26 60.8 °F 51.8 °F 30.06 in NW 2.0 mph 16.0 mph 72 % 0.00 in
22:31 60.8 °F 51.8 °F 30.06 in WNW 10.0 mph 16.0 mph 72 % 0.00 in
22:36 60.8 °F 51.8 °F 30.06 in North 8.0 mph 16.0 mph 72 % 0.00 in
22:41 60.8 °F 51.8 °F 30.06 in NW 8.0 mph 13.0 mph 72 % 0.00 in
22:46 60.6 °F 51.6 °F 30.06 in NNW 7.0 mph 13.0 mph 72 % 0.00 in
22:51 60.6 °F 51.6 °F 30.06 in NW 4.0 mph 13.0 mph 72 % 0.00 in
22:56 60.6 °F 51.6 °F 30.06 in NW 5.0 mph 16.0 mph 72 % 0.00 in
23:01 60.6 °F 51.6 °F 30.06 in NNW 5.0 mph 17.0 mph 72 % 0.00 in
23:06 60.6 °F 51.6 °F 30.06 in WNW 3.0 mph 17.0 mph 72 % 0.00 in
23:11 60.6 °F 51.6 °F 30.06 in NW 2.0 mph 17.0 mph 72 % 0.00 in
23:16 60.6 °F 51.6 °F 30.06 in NW 9.0 mph 15.0 mph 72 % 0.00 in
23:21 60.6 °F 51.6 °F 30.06 in NNW 10.0 mph 16.0 mph 72 % 0.00 in
23:26 60.6 °F 51.1 °F 30.06 in NW 6.0 mph 17.0 mph 71 % 0.00 in
23:31 60.6 °F 51.6 °F 30.06 in NNW 5.0 mph 17.0 mph 72 % 0.00 in
23:36 60.6 °F 51.1 °F 30.07 in WNW 9.0 mph 17.0 mph 71 % 0.00 in
23:41 60.4 °F 51.4 °F 30.07 in NNW 3.0 mph 17.0 mph 72 % 0.00 in
23:46 60.4 °F 51.1 °F 30.07 in NW 5.0 mph 17.0 mph 71 % 0.00 in
23:51 60.4 °F 50.5 °F 30.07 in NNW 7.0 mph 22.0 mph 70 % 0.00 in
23:56 60.4 °F 50.5 °F 30.06 in North 10.0 mph 22.0 mph 70 % 0.00 in
Spring, Texas: Villages of Bridgestone
Compliments of Weather Underground - 2.75 mb

Script developed by  Jim McMurry - jmcmurry@mwt.net Adapted for the template by  Wim van der Kuil - Leuven-Template.eu

You find our weather info also at:

UK Metoffice

WeatherCloud

Weather Underground

Mid-South Weather Network

AWEKAS

Citizen Weather Observer Program (CWOP)

HAMweather, WeatherForYou, PWS Weather

Equipment we use:

Weather-station
Davis Vantage Vue

Weather-program
Meteohub

Weather-server
Debian 7.9 x86 (Guest)

Provider
DreamHost

Davis Vantage Vue

Meteohub

Debian 7.9 x86 (Guest)

DreamHost